Time;durP1;ratioP1;P1;durP2;ratioP2;P2;SDS_P1;SDS_P2;PMS_P1;PMS_P2;Temp;Humidity;BMP_temperature;BMP_pressure;BME280_temperature;BME280_humidity;BME280_pressure;Samples;Min_cycle;Max_cycle;Signal;HPM_P1;HPM_P2
2021/05/20 00:02:01;;;;;;;;;;;;;;;10.95;78.71;97963.80;1694381;83;24951;-89
2021/05/20 00:04:28;;;;;;;;;;;;;;;10.98;78.73;97966.16;1694702;83;22097;-89
2021/05/20 00:06:58;;;;;;;;;;;;;;;10.99;78.77;97963.91;1697181;83;26121;-88
2021/05/20 00:09:30;;;;;;;;;;;;;;;11.00;78.77;97968.67;1670386;84;21355;-88
2021/05/20 00:12:02;;;;;;;;;;;;;;;10.99;78.79;97963.91;1690039;83;20234;-89
2021/05/20 00:14:34;;;;;;;;;;;;;;;10.99;78.80;97974.38;1653958;84;25425;-90
2021/05/20 00:17:01;;;;;;;;;;;;;;;10.99;78.81;97970.45;1665718;84;22708;-88
2021/05/20 00:19:32;;;;;;;;;;;;;;;11.03;78.88;97971.03;1680674;83;26045;-89
2021/05/20 00:22:12;;;;;;;;;;;;;;;11.06;78.88;97973.42;1685054;84;24426;-88
2021/05/20 00:24:47;;;;;;;;;;;;;;;11.07;78.92;97979.03;1694389;83;20309;-88
2021/05/20 00:27:18;;;;;;;;;;;;;;;11.04;78.92;97972.70;1685558;83;24825;-89
2021/05/20 00:29:44;;;;;;;;;;;;;;;11.02;78.94;97974.13;1698521;83;21982;-88
2021/05/20 00:32:10;;;;;;;;;;;;;;;11.01;78.96;97970.34;1699126;83;25954;-89
2021/05/20 00:34:46;;;;;;;;;;;;;;;11.01;78.98;97971.17;1707621;83;20335;-88
2021/05/20 00:37:20;;;;;;;;;;;;;;;11.03;79.02;97975.80;1699345;82;20293;-89
2021/05/20 00:39:46;;;;;;;;;;;;;;;11.05;79.01;97974.37;1693479;83;25197;-88
2021/05/20 00:42:30;;;;;;;;;;;;;;;11.03;79.04;97977.58;1697630;81;20296;-88
2021/05/20 00:45:05;;;;;;;;;;;;;;;11.07;79.07;97980.33;1690450;83;25971;-88
2021/05/20 00:47:33;;;;;;;;;;;;;;;11.04;79.09;97978.78;1705592;83;24451;-88
2021/05/20 00:49:59;;;;;;;;;;;;;;;11.05;79.11;97985.69;1694393;83;20644;-88
2021/05/20 00:55:03;;;;;;;;;;;;;;;11.07;79.15;97982.95;1693317;83;21954;-89
2021/05/20 00:57:30;;;;;;;;;;;;;;;11.08;79.18;97981.50;1689925;83;26212;-88
2021/05/20 00:59:58;;;;;;;;;;;;;;;11.10;79.21;97980.08;1696250;83;24384;-89
2021/05/20 01:02:24;;;;;;;;;;;;;;;11.13;79.21;97978.52;1691456;83;20346;-88
2021/05/20 01:04:51;;;;;;;;;;;;;;;11.10;79.24;97980.08;1682957;83;20261;-89
2021/05/20 01:07:19;;;;;;;;;;;;;;;11.09;79.27;97984.48;1691386;83;22003;-88
2021/05/20 01:09:45;;;;;;;;;;;;;;;11.03;79.28;97978.41;1685239;83;25956;-88
2021/05/20 01:12:13;;;;;;;;;;;;;;;11.06;79.27;97985.21;1697368;81;21819;-88
2021/05/20 01:14:42;;;;;;;;;;;;;;;11.11;79.32;97992.22;1708544;83;20299;-89
2021/05/20 01:17:08;;;;;;;;;;;;;;;11.12;79.35;97992.11;1713749;83;24946;-88
2021/05/20 01:19:36;;;;;;;;;;;;;;;11.16;79.37;97992.22;1725346;81;20217;-88
2021/05/20 01:22:03;;;;;;;;;;;;;;;11.20;79.40;97995.41;1723414;82;25921;-88
2021/05/20 01:24:29;;;;;;;;;;;;;;;11.19;79.42;97993.27;1719974;81;24440;-88
2021/05/20 01:27:06;;;;;;;;;;;;;;;11.20;79.41;97998.03;1721766;83;20308;-88
2021/05/20 01:29:34;;;;;;;;;;;;;;;11.16;79.42;97997.45;1724834;81;25493;-88
2021/05/20 01:32:06;;;;;;;;;;;;;;;11.16;79.40;97993.52;1725524;83;22009;-89
2021/05/20 01:34:38;;;;;;;;;;;;;;;11.13;79.41;97996.84;1723209;83;26010;-89
2021/05/20 01:37:11;;;;;;;;;;;;;;;11.09;79.39;97994.95;1722008;81;24428;-89
2021/05/20 01:39:37;;;;;;;;;;;;;;;11.04;79.41;97997.58;1719352;81;20220;-89
2021/05/20 01:42:11;;;;;;;;;;;;;;;10.99;79.37;98000.56;1716655;83;24779;-89
2021/05/20 01:44:43;;;;;;;;;;;;;;;10.93;79.40;97997.11;1719675;82;22622;-89
2021/05/20 01:47:15;;;;;;;;;;;;;;;10.91;79.40;97998.53;1716771;82;26842;-89
2021/05/20 01:52:33;;;;;;;;;;;;;;;10.88;79.42;98000.56;1686435;83;20572;-88
2021/05/20 01:55:03;;;;;;;;;;;;;;;10.89;79.46;98001.77;1719851;82;25709;-87
2021/05/20 01:57:33;;;;;;;;;;;;;;;10.85;79.48;97997.73;1718180;82;22836;-88
2021/05/20 02:00:02;;;;;;;;;;;;;;;10.75;79.48;97996.75;1726126;82;26745;-88
2021/05/20 02:02:37;;;;;;;;;;;;;;;10.75;79.50;97995.91;1717045;82;25127;-88
2021/05/20 02:05:05;;;;;;;;;;;;;;;10.73;79.52;97992.61;1719512;81;20219;-88
2021/05/20 02:07:37;;;;;;;;;;;;;;;10.75;79.55;97999.37;1670344;84;24852;-88
2021/05/20 02:10:04;;;;;;;;;;;;;;;10.85;79.59;98004.27;1717997;81;21939;-88
2021/05/20 02:12:34;;;;;;;;;;;;;;;10.85;79.61;98001.66;1721742;81;26243;-88
2021/05/20 02:15:00;;;;;;;;;;;;;;;10.82;79.65;97997.11;1700438;83;24487;-88
2021/05/20 02:17:28;;;;;;;;;;;;;;;10.82;79.67;98001.04;1704242;83;20224;-88
2021/05/20 02:19:59;;;;;;;;;;;;;;;10.86;79.67;98005.91;1722639;81;25741;-89
2021/05/20 02:22:35;;;;;;;;;;;;;;;10.94;79.70;98007.11;1721442;81;22706;-89
2021/05/20 02:25:04;;;;;;;;;;;;;;;10.98;79.72;98009.36;1723327;81;26189;-89
2021/05/20 02:27:35;;;;;;;;;;;;;;;11.00;79.71;98003.55;1725570;81;24426;-90
2021/05/20 02:30:02;;;;;;;;;;;;;;;11.00;79.71;98007.47;1725027;81;20205;-89
2021/05/20 02:32:29;;;;;;;;;;;;;;;10.93;79.71;98014.60;1738272;81;24771;-88
2021/05/20 02:34:55;;;;;;;;;;;;;;;10.83;79.74;98011.87;1729654;81;22071;-88
2021/05/20 02:37:34;;;;;;;;;;;;;;;10.72;79.74;98014.02;1737452;81;20920;-88
2021/05/20 02:40:14;;;;;;;;;;;;;;;10.71;79.73;98018.05;1733956;81;25297;-89
2021/05/20 02:42:50;;;;;;;;;;;;;;;10.66;79.75;98013.17;1729981;81;20186;-89
2021/05/20 02:45:27;;;;;;;;;;;;;;;10.59;79.76;98018.98;1698130;82;24834;-88
2021/05/20 02:48:05;;;;;;;;;;;;;;;10.66;79.77;98013.64;1682129;83;22000;-90
2021/05/20 02:50:31;;;;;;;;;;;;;;;10.71;79.81;98019.36;1658068;85;26026;-89
2021/05/20 02:52:57;;;;;;;;;;;;;;;10.79;79.84;98022.23;1691137;83;20413;-90
2021/05/20 02:55:37;;;;;;;;;;;;;;;10.91;79.88;98026.02;1691017;84;20322;-90
2021/05/20 02:58:14;;;;;;;;;;;;;;;10.96;79.91;98028.78;1697355;82;24756;-91
2021/05/20 03:00:46;;;;;;;;;;;;;;;10.98;79.94;98033.40;1697680;84;22190;-91
2021/05/20 03:03:17;;;;;;;;;;;;;;;10.98;79.95;98032.93;1724333;81;26360;-90
2021/05/20 03:05:53;;;;;;;;;;;;;;;10.85;79.98;98039.61;1716321;81;24717;-90
2021/05/20 03:08:20;;;;;;;;;;;;;;;10.82;79.97;98035.07;1698368;81;20211;-90
2021/05/20 03:10:49;;;;;;;;;;;;;;;10.82;79.95;98046.38;1695499;83;24811;-89
2021/05/20 03:13:15;;;;;;;;;;;;;;;10.77;79.97;98042.44;1660948;84;22198;-89
2021/05/20 03:15:43;;;;;;;;;;;;;;;10.76;79.99;98044.23;1709864;83;25951;-89
2021/05/20 03:18:12;;;;;;;;;;;;;;;10.76;79.99;98042.92;1712146;82;24499;-89
2021/05/20 03:20:41;;;;;;;;;;;;;;;10.86;79.99;98049.58;1715521;81;20287;-90
2021/05/20 03:23:07;;;;;;;;;;;;;;;10.88;80.02;98052.92;1721497;81;25649;-90
2021/05/20 03:25:35;;;;;;;;;;;;;;;10.99;80.04;98052.93;1696382;83;20361;-90
2021/05/20 03:28:07;;;;;;;;;;;;;;;11.04;80.03;98052.56;1694410;83;26147;-89
2021/05/20 03:30:33;;;;;;;;;;;;;;;11.05;80.06;98053.77;1727341;81;26190;-90
2021/05/20 03:32:59;;;;;;;;;;;;;;;11.04;80.06;98050.78;1710506;82;20227;-89
2021/05/20 03:35:32;;;;;;;;;;;;;;;11.01;80.03;98052.34;1702814;81;24812;-90
2021/05/20 03:38:04;;;;;;;;;;;;;;;10.91;80.01;98050.89;1723709;83;21939;-90
2021/05/20 03:40:33;;;;;;;;;;;;;;;10.88;80.02;98051.14;1706146;83;25954;-90
2021/05/20 03:43:01;;;;;;;;;;;;;;;10.87;80.03;98049.94;1703605;83;24608;-89
2021/05/20 03:45:30;;;;;;;;;;;;;;;10.87;80.02;98059.11;1717191;80;20187;-89
2021/05/20 03:48:05;;;;;;;;;;;;;;;10.82;79.98;98057.32;1716938;81;24775;-89
2021/05/20 03:50:40;;;;;;;;;;;;;;;10.81;79.95;98055.17;1727802;81;21910;-89
2021/05/20 03:53:11;;;;;;;;;;;;;;;10.77;79.94;98049.83;1719841;81;21558;-89
2021/05/20 03:55:38;;;;;;;;;;;;;;;10.76;79.92;98052.08;1688801;83;24483;-89
2021/05/20 03:58:07;;;;;;;;;;;;;;;10.81;79.90;98053.86;1731873;82;20534;-89
2021/05/20 04:00:33;;;;;;;;;;;;;;;10.82;79.92;98055.54;1727838;82;25527;-89
2021/05/20 04:03:21;;;;;;;;;;;;;;;10.80;79.91;98054.81;1738357;82;22087;-89
2021/05/20 04:05:49;;;;;;;;;;;;;;;10.80;79.91;98054.01;1732230;82;26028;-89
2021/05/20 04:08:18;;;;;;;;;;;;;;;10.79;79.94;98054.95;1731616;82;24477;-88
2021/05/20 04:10:55;;;;;;;;;;;;;;;10.82;79.95;98062.08;1734866;82;20630;-89
2021/05/20 04:13:32;;;;;;;;;;;;;;;10.86;79.99;98063.98;1737552;82;24745;-88
2021/05/20 04:16:02;;;;;;;;;;;;;;;10.90;80.01;98069.36;1732872;82;21987;-88
2021/05/20 04:18:28;;;;;;;;;;;;;;;10.93;80.03;98071.73;1732502;80;26096;-88
2021/05/20 04:20:56;;;;;;;;;;;;;;;10.94;80.05;98076.02;1734862;82;20310;-88
2021/05/20 04:23:31;;;;;;;;;;;;;;;10.93;80.06;98077.44;1736776;82;20234;-88
2021/05/20 04:26:06;;;;;;;;;;;;;;;10.93;80.06;98082.67;1733155;81;24936;-88
2021/05/20 04:28:38;;;;;;;;;;;;;;;10.87;80.08;98083.50;1731771;82;21991;-88
2021/05/20 04:31:08;;;;;;;;;;;;;;;10.84;80.04;98079.83;1736593;82;25989;-89
2021/05/20 04:33:34;;;;;;;;;;;;;;;10.86;80.05;98080.99;1726735;82;24594;-89
2021/05/20 04:36:28;;;;;;;;;;;;;;;10.91;80.09;98089.33;1732731;82;20278;-89
2021/05/20 04:38:59;;;;;;;;;;;;;;;10.96;80.13;98096.38;1733129;82;25182;-89
2021/05/20 04:41:25;;;;;;;;;;;;;;;10.99;80.13;98102.67;1734925;82;21990;-89
2021/05/20 04:44:00;;;;;;;;;;;;;;;10.99;80.15;98101.84;1737070;82;26629;-89
2021/05/20 04:46:38;;;;;;;;;;;;;;;11.00;80.15;98112.20;1732728;80;24510;-88
2021/05/20 04:49:14;;;;;;;;;;;;;;;10.97;80.19;98103.27;1733480;82;20337;-88
2021/05/20 04:51:40;;;;;;;;;;;;;;;10.86;80.19;98115.02;1731255;81;24822;-89
2021/05/20 04:54:06;;;;;;;;;;;;;;;10.84;80.18;98113.86;1734469;82;21987;-88
2021/05/20 04:56:33;;;;;;;;;;;;;;;10.87;80.20;98110.98;1737626;82;26010;-88
2021/05/20 04:59:00;;;;;;;;;;;;;;;10.92;80.20;98108.02;1726436;82;24409;-89
2021/05/20 05:01:33;;;;;;;;;;;;;;;10.93;80.23;98113.62;1733906;81;20292;-88
2021/05/20 05:03:59;;;;;;;;;;;;;;;10.96;80.26;98114.71;1730995;81;24829;-87
2021/05/20 05:06:25;;;;;;;;;;;;;;;10.96;80.30;98118.64;1735352;82;22078;-88
2021/05/20 05:08:57;;;;;;;;;;;;;;;10.89;80.29;98118.73;1731915;82;25899;-89
2021/05/20 05:11:23;;;;;;;;;;;;;;;10.94;80.28;98115.77;1734275;82;24652;-88
2021/05/20 05:13:49;;;;;;;;;;;;;;;10.93;80.30;98120.63;1736060;80;20232;-88
2021/05/20 05:16:16;;;;;;;;;;;;;;;10.86;80.30;98115.86;1702064;82;20395;-88
2021/05/20 05:18:43;;;;;;;;;;;;;;;10.86;80.31;98120.26;1716492;82;22851;-89
2021/05/20 05:21:14;;;;;;;;;;;;;;;10.77;80.29;98107.41;1731543;80;26655;-89
2021/05/20 05:23:40;;;;;;;;;;;;;;;10.82;80.28;98127.52;1717198;81;24534;-89
2021/05/20 05:26:12;;;;;;;;;;;;;;;10.86;80.27;98128.11;1722525;81;20412;-89
2021/05/20 05:28:41;;;;;;;;;;;;;;;10.86;80.29;98123.71;1711152;82;24727;-89
2021/05/20 05:31:16;;;;;;;;;;;;;;;10.89;80.35;98126.12;1706662;82;22055;-89
2021/05/20 05:33:43;;;;;;;;;;;;;;;10.93;80.39;98128.02;1734936;82;26858;-89
2021/05/20 05:36:10;;;;;;;;;;;;;;;10.95;80.46;98134.45;1731522;82;24523;-89
2021/05/20 05:38:40;;;;;;;;;;;;;;;10.97;80.49;98138.61;1728170;81;20197;-89
2021/05/20 05:41:06;;;;;;;;;;;;;;;11.01;80.53;98129.59;1728686;82;24780;-88
2021/05/20 05:43:32;;;;;;;;;;;;;;;11.07;80.57;98132.22;1732668;82;20326;-88
2021/05/20 05:46:07;;;;;;;;;;;;;;;11.10;80.61;98130.19;1726298;82;21026;-89
2021/05/20 05:48:36;;;;;;;;;;;;;;;11.16;80.62;98128.41;1686154;82;24480;-89
2021/05/20 05:51:10;;;;;;;;;;;;;;;11.22;80.66;98131.03;1735956;82;20567;-89
2021/05/20 05:53:35;;;;;;;;;;;;;;;11.27;80.69;98134.13;1710554;82;24761;-88
2021/05/20 05:56:14;;;;;;;;;;;;;;;11.33;80.72;98134.97;1729175;82;22012;-89
2021/05/20 05:58:43;;;;;;;;;;;;;;;11.33;80.77;98129.25;1719593;82;26153;-88
2021/05/20 06:01:12;;;;;;;;;;;;;;;11.39;80.81;98136.27;1729171;81;24507;-89
2021/05/20 06:03:41;;;;;;;;;;;;;;;11.39;80.80;98133.18;1713381;82;20325;-89
2021/05/20 06:06:10;;;;;;;;;;;;;;;11.39;80.83;98135.80;1736321;82;24792;-89
2021/05/20 06:08:39;;;;;;;;;;;;;;;11.37;80.83;98136.38;1733974;82;21993;-89
2021/05/20 06:11:05;;;;;;;;;;;;;;;11.41;80.79;98136.97;1731413;81;26158;-89
2021/05/20 06:13:31;;;;;;;;;;;;;;;11.44;80.79;98134.97;1734924;82;20248;-89
2021/05/20 06:15:58;;;;;;;;;;;;;;;11.51;80.81;98141.87;1733197;82;20272;-89
2021/05/20 06:18:33;;;;;;;;;;;;;;;11.60;80.83;98143.77;1725534;82;24996;-88
2021/05/20 06:21:01;;;;;;;;;;;;;;;11.68;80.84;98149.22;1739607;82;22072;-89
2021/05/20 06:23:28;;;;;;;;;;;;;;;11.70;80.85;98147.33;1727207;82;26681;-89
2021/05/20 06:25:58;;;;;;;;;;;;;;;11.65;80.83;98142.45;1733752;82;24394;-89
2021/05/20 06:28:29;;;;;;;;;;;;;;;11.75;80.83;98151.76;1736846;82;20206;-89
2021/05/20 06:30:55;;;;;;;;;;;;;;;11.80;80.83;98152.22;1728580;82;25443;-89
2021/05/20 06:33:22;;;;;;;;;;;;;;;11.90;80.88;98150.53;1731941;82;22654;-89
2021/05/20 06:35:48;;;;;;;;;;;;;;;11.95;80.90;98148.84;1731707;82;25960;-88
2021/05/20 06:38:16;;;;;;;;;;;;;;;12.02;80.88;98154.80;1734288;82;24606;-89
2021/05/20 06:40:45;;;;;;;;;;;;;;;11.99;80.83;98151.13;1733840;82;20203;-88
2021/05/20 06:43:14;;;;;;;;;;;;;;;12.02;80.78;98153.49;1738786;82;24765;-88
2021/05/20 06:45:40;;;;;;;;;;;;;;;12.02;80.71;98163.15;1730892;82;22003;-88
2021/05/20 06:48:06;;;;;;;;;;;;;;;11.98;80.68;98174.38;1694577;83;26020;-88
2021/05/20 06:50:32;;;;;;;;;;;;;;;11.98;80.61;98172.23;1683954;83;24471;-88
2021/05/20 06:52:59;;;;;;;;;;;;;;;11.97;80.54;98177.11;1711226;81;20334;-89
2021/05/20 07:00:36;;;;;;;;;;;;;;;12.19;80.44;98176.22;1708102;83;26003;-88
2021/05/20 07:03:04;;;;;;;;;;;;;;;12.25;80.42;98170.48;1693560;83;24611;-87
2021/05/20 07:05:30;;;;;;;;;;;;;;;12.34;80.41;98172.36;1707374;83;20532;-88
2021/05/20 07:07:59;;;;;;;;;;;;;;;12.52;80.39;98176.12;1723002;81;24837;-88
2021/05/20 07:10:26;;;;;;;;;;;;;;;12.67;80.44;98182.73;1735725;81;22674;-88
2021/05/20 07:12:52;;;;;;;;;;;;;;;12.70;80.42;98175.09;1722197;83;25925;-88
2021/05/20 07:15:18;;;;;;;;;;;;;;;12.84;80.40;98177.40;1719527;81;24659;-88
2021/05/20 07:17:44;;;;;;;;;;;;;;;12.93;80.35;98177.94;1715699;82;20296;-88
2021/05/20 07:20:11;;;;;;;;;;;;;;;13.02;80.29;98179.81;1701044;81;24985;-88
2021/05/20 07:22:37;;;;;;;;;;;;;;;13.01;80.20;98175.52;1730268;81;22062;-89
2021/05/20 07:25:06;;;;;;;;;;;;;;;12.93;80.08;98184.03;1695238;83;21240;-89
2021/05/20 07:27:33;;;;;;;;;;;;;;;12.85;79.86;98181.70;1726729;82;25135;-89
2021/05/20 07:30:03;;;;;;;;;;;;;;;12.91;79.73;98182.03;1719636;83;20257;-89
2021/05/20 07:32:30;;;;;;;;;;;;;;;13.02;79.64;98182.92;1724543;83;24833;-88
2021/05/20 07:34:56;;;;;;;;;;;;;;;13.11;79.58;98183.45;1738337;81;21972;-88
2021/05/20 07:37:23;;;;;;;;;;;;;;;13.24;79.53;98182.34;1723405;81;25959;-89
2021/05/20 07:39:52;;;;;;;;;;;;;;;13.37;79.49;98181.63;1724795;81;20394;-88
2021/05/20 07:42:17;;;;;;;;;;;;;;;13.46;79.46;98189.23;1723805;81;20255;-88
2021/05/20 07:44:44;;;;;;;;;;;;;;;13.52;79.38;98182.13;1717377;83;24978;-89
2021/05/20 07:47:10;;;;;;;;;;;;;;;13.62;79.28;98183.00;1712322;83;22131;-87
2021/05/20 07:49:40;;;;;;;;;;;;;;;13.71;79.21;98174.31;1725035;81;26872;-89
2021/05/20 07:52:06;;;;;;;;;;;;;;;13.80;79.10;98177.45;1701492;82;25160;-88
2021/05/20 07:54:38;;;;;;;;;;;;;;;13.76;78.94;98178.69;1689254;83;20384;-88
2021/05/20 07:57:04;;;;;;;;;;;;;;;13.68;78.75;98171.95;1705491;83;24876;-88
2021/05/20 07:59:30;;;;;;;;;;;;;;;13.57;78.55;98169.42;1709018;83;21931;-90
2021/05/20 08:02:11;;;;;;;;;;;;;;;13.64;78.40;98174.48;1716097;83;25829;-89
2021/05/20 08:04:34;;;;;;;;;;;;;;;13.74;78.25;98169.28;1720836;81;20248;-89
2021/05/20 08:07:29;;;;;;;;;;;;;;;13.88;78.11;98172.84;1674566;84;20238;-89
2021/05/20 08:12:37;;;;;;;;;;;;;;;13.59;77.60;98171.90;1682038;84;22186;-90
2021/05/20 08:15:04;;;;;;;;;;;;;;;13.34;77.16;98173.18;1697950;84;26132;-89
2021/05/20 08:17:30;;;;;;;;;;;;;;;13.17;76.83;98175.09;1687701;84;24638;-89
2021/05/20 08:20:01;;;;;;;;;;;;;;;13.03;76.56;98172.30;1681252;84;20288;-89
2021/05/20 08:22:38;;;;;;;;;;;;;;;12.94;76.40;98172.56;1690253;82;24790;-90
2021/05/20 08:25:10;;;;;;;;;;;;;;;12.96;76.29;98175.07;1675657;83;22008;-89
2021/05/20 08:27:36;;;;;;;;;;;;;;;13.00;76.30;98176.47;1674687;83;26045;-89
2021/05/20 08:30:11;;;;;;;;;;;;;;;13.06;76.36;98175.12;1707906;83;24426;-89
2021/05/20 08:32:37;;;;;;;;;;;;;;;13.06;76.40;98176.44;1713357;83;20185;-89
2021/05/20 08:35:04;;;;;;;;;;;;;;;13.20;76.44;98173.53;1709688;81;20252;-89
2021/05/20 08:37:30;;;;;;;;;;;;;;;13.34;76.51;98181.06;1710661;83;21991;-89
2021/05/20 08:39:59;;;;;;;;;;;;;;;13.50;76.57;98173.53;1709983;82;21408;-88
2021/05/20 08:42:31;;;;;;;;;;;;;;;13.60;76.50;98174.41;1684804;83;24446;-89
2021/05/20 08:44:57;;;;;;;;;;;;;;;13.82;76.42;98176.01;1666010;85;20425;-89
2021/05/20 08:47:23;;;;;;;;;;;;;;;13.90;76.36;98177.50;1654407;85;20310;-89
2021/05/20 08:49:49;;;;;;;;;;;;;;;13.93;76.18;98178.53;1705582;83;22128;-89
2021/05/20 08:52:19;;;;;;;;;;;;;;;;;;1712896;82;25948;-89
2021/05/20 08:54:46;;;;;;;;;;;;;;;13.97;75.84;98186.98;1730469;82;24480;-89
2021/05/20 08:57:27;;;;;;;;;;;;;;;13.94;75.58;98185.47;1715834;81;20258;-89
2021/05/20 09:00:02;;;;;;;;;;;;;;;14.05;75.31;98184.05;1712613;81;24789;-89
2021/05/20 09:02:28;;;;;;;;;;;;;;;14.06;74.88;98183.08;1726414;81;21956;-89
2021/05/20 09:05:21;;;;;;;;;;;;;;;14.11;74.48;98191.41;1720681;81;26180;-89
2021/05/20 09:07:51;;;;;;;;;;;;;;;14.16;73.99;98186.56;1720052;81;25165;-89
2021/05/20 09:10:34;;;;;;;;;;;;;;;14.28;73.51;98195.66;1698685;83;20303;-89
2021/05/20 09:13:05;;;;;;;;;;;;;;;14.40;73.14;98193.29;1726257;81;20573;-89
2021/05/20 09:15:36;;;;;;;;;;;;;;;14.49;72.86;98187.19;1702768;81;22690;-89
2021/05/20 09:18:13;;;;;;;;;;;;;;;14.45;72.54;98187.13;1699542;83;25996;-88
2021/05/20 09:20:48;;;;;;;;;;;;;;;14.37;72.14;98189.59;1699283;83;24388;-88
2021/05/20 09:23:24;;;;;;;;;;;;;;;14.39;71.75;98195.57;1726572;81;20217;-89
2021/05/20 09:25:51;;;;;;;;;;;;;;;14.40;71.44;98199.36;1713315;81;25487;-88
2021/05/20 09:28:34;;;;;;;;;;;;;;;14.36;71.12;98194.00;1683573;83;21963;-88
2021/05/20 09:31:01;;;;;;;;;;;;;;;14.40;70.82;98194.09;1717007;81;25954;-89
2021/05/20 09:33:27;;;;;;;;;;;;;;;14.53;70.64;98193.84;1723430;81;24463;-88
2021/05/20 09:35:54;;;;;;;;;;;;;;;14.65;70.52;98183.05;1714930;81;20400;-88
2021/05/20 09:38:23;;;;;;;;;;;;;;;14.74;70.21;98187.11;1711136;81;24928;-87
2021/05/20 09:41:01;;;;;;;;;;;;;;;14.86;70.00;98186.01;1706542;81;22180;-87
2021/05/20 09:43:34;;;;;;;;;;;;;;;15.01;69.80;98184.11;1716200;81;26108;-88
2021/05/20 09:46:15;;;;;;;;;;;;;;;15.22;69.60;98174.70;1720307;81;20568;-87
2021/05/20 09:48:49;;;;;;;;;;;;;;;15.45;69.44;98171.25;1710022;82;20272;-88
2021/05/20 09:51:23;;;;;;;;;;;;;;;15.58;69.26;98173.61;1721999;81;24207;-88
2021/05/20 09:53:53;;;;;;;;;;;;;;;15.55;68.99;98182.62;1724803;81;22769;-87
2021/05/20 09:56:39;;;;;;;;;;;;;;;15.41;68.65;98189.17;1714139;81;26163;-87
2021/05/20 09:59:06;;;;;;;;;;;;;;;15.26;68.36;98187.97;1719273;81;24452;-87
2021/05/20 10:01:42;;;;;;;;;;;;;;;15.15;68.11;98188.13;1718466;81;20358;-85
2021/05/20 10:04:12;;;;;;;;;;;;;;;15.18;68.00;98182.56;1720090;81;22421;-85
2021/05/20 10:06:42;;;;;;;;;;;;;;;15.25;67.91;98181.03;1719883;81;21980;-85
2021/05/20 10:09:12;;;;;;;;;;;;;;;15.26;67.71;98184.02;1720063;81;25926;-85
2021/05/20 10:11:39;;;;;;;;;;;;;;;15.25;67.29;98183.67;1718931;81;25196;-85
2021/05/20 10:14:06;;;;;;;;;;;;;;;15.37;66.94;98184.34;1727907;81;20449;-85
2021/05/20 10:16:33;;;;;;;;;;;;;;;15.49;66.55;98179.23;1719153;81;24987;-85
2021/05/20 10:18:59;;;;;;;;;;;;;;;15.62;66.30;98180.24;1722869;81;21954;-86
2021/05/20 10:21:26;;;;;;;;;;;;;;;15.70;65.98;98175.09;1717558;81;25910;-85
2021/05/20 10:23:52;;;;;;;;;;;;;;;15.84;65.72;98177.23;1719377;81;24566;-85
2021/05/20 10:26:19;;;;;;;;;;;;;;;15.95;65.33;98174.41;1719565;81;20262;-85
2021/05/20 10:28:46;;;;;;;;;;;;;;;15.95;64.95;98181.00;1729728;81;24784;-85
2021/05/20 10:31:13;;;;;;;;;;;;;;;15.85;64.44;98179.73;1724655;81;22830;-85
2021/05/20 10:33:39;;;;;;;;;;;;;;;15.75;64.04;98183.39;1720239;81;25962;-85
2021/05/20 10:36:09;;;;;;;;;;;;;;;15.68;63.68;98184.45;1715574;81;24546;-85
2021/05/20 10:38:37;;;;;;;;;;;;;;;15.67;63.30;98181.95;1703923;81;20259;-85
2021/05/20 10:41:15;;;;;;;;;;;;;;;15.75;63.02;98178.12;1723916;81;24818;-85
2021/05/20 10:43:42;;;;;;;;;;;;;;;15.88;62.87;98172.83;1721272;81;22846;-86
2021/05/20 10:46:12;;;;;;;;;;;;;;;15.98;62.69;98167.52;1721235;81;25967;-86
2021/05/20 10:48:36;;;;;;;;;;;;;;;16.01;62.41;98175.14;1718984;81;24538;-86
2021/05/20 10:51:05;;;;;;;;;;;;;;;16.08;62.01;98168.30;1718672;81;20316;-86
2021/05/20 10:53:48;;;;;;;;;;;;;;;16.20;61.72;98166.28;1718777;81;24505;-86
2021/05/20 10:56:24;;;;;;;;;;;;;;;16.25;61.36;98165.34;1713358;81;21440;-86
2021/05/20 10:58:52;;;;;;;;;;;;;;;16.36;61.13;98159.84;1713924;82;26524;-85
2021/05/20 11:01:24;;;;;;;;;;;;;;;16.57;61.05;98175.40;1713723;81;25200;-86
2021/05/20 11:04:00;;;;;;;;;;;;;;;16.67;60.70;98167.77;1715574;81;20271;-86
2021/05/20 11:06:34;;;;;;;;;;;;;;;16.78;60.30;98166.70;1717613;81;24955;-85
2021/05/20 11:09:02;;;;;;;;;;;;;;;16.76;59.78;98150.16;1711656;81;22037;-86
2021/05/20 11:11:36;;;;;;;;;;;;;;;16.54;59.23;98162.47;1654135;84;26797;-85
2021/05/20 11:14:03;;;;;;;;;;;;;;;16.29;58.84;98153.02;1715246;82;24521;-86
2021/05/20 11:16:31;;;;;;;;;;;;;;;16.20;58.55;98165.77;1685779;82;20882;-86
2021/05/20 11:19:28;;;;;;;;;;;;;;;16.10;58.29;98168.96;1719043;82;24789;-86
2021/05/20 11:24:42;;;;;;;;;;;;;;;16.33;58.01;98158.33;1672744;82;26073;-86
2021/05/20 11:27:23;;;;;;;;;;;;;;;16.60;57.90;98157.94;1704374;81;24735;-86
2021/05/20 11:29:48;;;;;;;;;;;;;;;16.83;57.74;98154.34;1690636;82;21330;-86
2021/05/20 11:32:26;;;;;;;;;;;;;;;17.02;57.60;98153.66;1720758;81;25489;-86
2021/05/20 11:35:33;;;;;;;;;;;;;;;17.10;57.24;98155.05;1713179;82;22752;-86
2021/05/20 11:37:43;;;;;;;;;;;;;;;17.18;56.96;98152.13;1705058;82;26174;-86
2021/05/20 11:40:33;;;;;;;;;;;;;;;17.11;56.60;98161.17;1714874;82;24367;-86
2021/05/20 11:42:59;;;;;;;;;;;;;;;17.01;56.35;98167.05;1713688;82;20270;-85
2021/05/20 11:45:27;;;;;;;;;;;;;;;16.92;56.19;98163.98;1715177;82;24799;-86
2021/05/20 11:47:54;;;;;;;;;;;;;;;16.84;56.10;98162.62;1708841;82;22050;-86
2021/05/20 11:50:21;;;;;;;;;;;;;;;16.88;56.06;98158.67;1706659;82;26089;-86
2021/05/20 11:52:47;;;;;;;;;;;;;;;16.89;55.93;98156.37;1712747;82;24512;-86
2021/05/20 11:55:13;;;;;;;;;;;;;;;16.80;55.67;98150.17;1728853;81;20276;-86
2021/05/20 11:57:39;;;;;;;;;;;;;;;16.76;55.43;98147.52;1731129;82;24777;-85
2021/05/20 12:00:06;;;;;;;;;;;;;;;16.66;55.16;98152.05;1730891;80;20334;-86
2021/05/20 12:02:34;;;;;;;;;;;;;;;16.58;54.99;98152.77;1733584;80;26066;-86
2021/05/20 12:05:02;;;;;;;;;;;;;;;16.58;54.86;98158.57;1736072;81;24536;-85
2021/05/20 12:07:30;;;;;;;;;;;;;;;16.56;54.78;98152.11;1730679;81;20234;-86
2021/05/20 12:10:07;;;;;;;;;;;;;;;16.67;54.77;98152.40;1734759;80;24786;-86
2021/05/20 12:12:38;;;;;;;;;;;;;;;16.70;54.62;98152.91;1738139;82;22799;-86
2021/05/20 12:15:16;;;;;;;;;;;;;;;16.76;54.35;98155.44;1742512;80;26035;-86
2021/05/20 12:17:45;;;;;;;;;;;;;;;16.99;54.22;98147.37;1728551;82;24481;-86
2021/05/20 12:20:12;;;;;;;;;;;;;;;17.21;54.08;98146.52;1735319;82;20311;-86
2021/05/20 12:22:39;;;;;;;;;;;;;;;17.35;53.90;98144.61;1735063;80;24291;-86
2021/05/20 12:25:11;;;;;;;;;;;;;;;17.39;53.50;98138.04;1736103;80;22825;-86
2021/05/20 12:27:39;;;;;;;;;;;;;;;17.55;53.33;98140.28;1731075;82;26086;-85
2021/05/20 12:30:06;;;;;;;;;;;;;;;17.74;53.19;98139.72;1734477;80;24525;-85
2021/05/20 12:32:38;;;;;;;;;;;;;;;17.74;52.92;98139.72;1736252;82;20369;-86
2021/05/20 12:35:11;;;;;;;;;;;;;;;17.65;52.60;98141.51;1737091;80;25340;-86
2021/05/20 12:37:55;;;;;;;;;;;;;;;17.63;52.43;98151.91;1702609;82;22013;-86
2021/05/20 12:40:25;;;;;;;;;;;;;;;17.63;52.22;98147.44;1672784;83;26678;-86
2021/05/20 12:42:53;;;;;;;;;;;;;;;17.72;52.02;98152.30;1698343;82;24447;-86
2021/05/20 12:45:21;;;;;;;;;;;;;;;17.88;51.99;98145.75;1682321;83;20283;-86
2021/05/20 12:47:48;;;;;;;;;;;;;;;17.98;51.96;98153.89;1668372;85;24767;-85
2021/05/20 12:50:16;;;;;;;;;;;;;;;17.99;51.88;98146.78;1697468;82;22067;-86
2021/05/20 12:52:55;;;;;;;;;;;;;;;17.95;51.82;98156.84;1695641;82;26165;-86
2021/05/20 12:55:22;;;;;;;;;;;;;;;17.83;51.68;98162.11;1696458;82;24699;-86
2021/05/20 12:57:57;;;;;;;;;;;;;;;17.61;51.34;98151.25;1688554;84;20905;-86
2021/05/20 13:00:23;;;;;;;;;;;;;;;17.40;51.00;98143.67;1698897;82;24887;-86
2021/05/20 13:02:59;;;;;;;;;;;;;;;17.30;50.84;98150.86;1694600;82;20268;-86
2021/05/20 13:05:27;;;;;;;;;;;;;;;17.31;50.71;98148.56;1700330;82;25931;-86
2021/05/20 13:07:55;;;;;;;;;;;;;;;17.42;50.64;98141.19;1670351;83;24392;-86
2021/05/20 13:10:31;;;;;;;;;;;;;;;17.57;50.63;98144.91;1694890;83;20519;-86
2021/05/20 13:12:57;;;;;;;;;;;;;;;17.76;50.62;98147.84;1673637;83;25476;-86
2021/05/20 13:15:23;;;;;;;;;;;;;;;17.84;50.48;98147.03;1667486;83;20357;-86
2021/05/20 13:18:22;;;;;;;;;;;;;;;17.86;50.30;98147.70;1666089;84;25972;-85
2021/05/20 13:23:10;;;;;;;;;;;;;;;17.72;49.41;98147.00;1674364;84;20303;-86